Time;durP1;ratioP1;P1;durP2;ratioP2;P2;SDS_P1;SDS_P2;PMS_P1;PMS_P2;Temp;Humidity;BMP_temperature;BMP_pressure;BME280_temperature;BME280_humidity;BME280_pressure;Samples;Min_cycle;Max_cycle;Signal;HPM_P1;HPM_P2
2022/04/24 00:00:58;;;;;;;0.00;0.00;;;;;;;;;;5094249;28;20020;-78
2022/04/24 00:03:25;;;;;;;1.10;0.93;;;;;;;;;;5093410;28;20118;-79
2022/04/24 00:05:51;;;;;;;0.00;0.00;;;;;;;;;;5086802;28;20380;-79
2022/04/24 00:08:17;;;;;;;0.10;0.10;;;;;;;;;;5081701;28;20134;-79
2022/04/24 00:10:45;;;;;;;0.00;0.00;;;;;;;;;;5091242;28;20686;-79
2022/04/24 00:13:11;;;;;;;0.00;0.00;;;;;;;;;;5085643;28;20375;-79
2022/04/24 00:15:40;;;;;;;0.00;0.00;;;;;;;;;;5078695;28;20028;-79
2022/04/24 00:18:07;;;;;;;0.00;0.00;;;;;;;;;;5078642;28;20041;-79
2022/04/24 00:20:34;;;;;;;0.00;0.00;;;;;;;;;;5081913;28;20439;-79
2022/04/24 00:23:12;;;;;;;0.00;0.00;;;;;;;;;;5074874;28;20473;-79
2022/04/24 00:25:39;;;;;;;0.00;0.00;;;;;;;;;;5093581;28;20020;-79
2022/04/24 00:28:05;;;;;;;0.00;0.00;;;;;;;;;;5084791;28;20119;-79
2022/04/24 00:30:32;;;;;;;0.00;0.00;;;;;;;;;;5085911;28;20467;-79
2022/04/24 00:32:58;;;;;;;0.15;0.10;;;;;;;;;;5073114;28;20036;-79
2022/04/24 00:35:24;;;;;;;0.00;0.00;;;;;;;;;;5080516;28;20030;-77
2022/04/24 00:37:51;;;;;;;0.00;0.00;;;;;;;;;;5075394;28;20119;-79
2022/04/24 00:40:19;;;;;;;0.00;0.00;;;;;;;;;;5083985;28;20403;-78
2022/04/24 00:42:45;;;;;;;0.00;0.00;;;;;;;;;;5080869;28;20028;-79
2022/04/24 00:45:17;;;;;;;0.00;0.00;;;;;;;;;;5079039;28;20032;-77
2022/04/24 00:47:44;;;;;;;0.20;0.20;;;;;;;;;;5080918;28;20017;-76
2022/04/24 00:50:10;;;;;;;0.22;0.10;;;;;;;;;;5085755;28;20059;-77
2022/04/24 00:52:37;;;;;;;0.00;0.00;;;;;;;;;;5077130;28;20039;-77
2022/04/24 00:55:04;;;;;;;0.90;0.90;;;;;;;;;;5078518;28;20114;-79
2022/04/24 00:57:30;;;;;;;5.82;5.50;;;;;;;;;;5081498;28;20017;-76
2022/04/24 00:59:57;;;;;;;1.85;0.68;;;;;;;;;;5101629;28;20151;-76
2022/04/24 01:02:23;;;;;;;0.10;0.10;;;;;;;;;;5087732;28;20064;-75
2022/04/24 01:04:50;;;;;;;0.05;0.05;;;;;;;;;;5082220;28;20472;-76
2022/04/24 01:07:16;;;;;;;0.25;0.25;;;;;;;;;;5073062;28;20471;-76
2022/04/24 01:09:42;;;;;;;1.27;1.20;;;;;;;;;;5076417;28;20043;-76
2022/04/24 01:12:09;;;;;;;0.43;0.20;;;;;;;;;;5076341;28;20472;-76
2022/04/24 01:14:35;;;;;;;0.30;0.30;;;;;;;;;;5088421;28;20028;-76
2022/04/24 01:17:03;;;;;;;0.80;0.63;;;;;;;;;;5105201;28;20122;-77
2022/04/24 01:19:29;;;;;;;0.00;0.00;;;;;;;;;;5112963;28;20024;-78
2022/04/24 01:21:57;;;;;;;2.10;1.85;;;;;;;;;;5096777;28;20114;-77
2022/04/24 01:24:27;;;;;;;0.55;0.55;;;;;;;;;;5084687;28;20031;-77
2022/04/24 01:26:54;;;;;;;1.10;0.98;;;;;;;;;;5112651;28;20171;-77
2022/04/24 01:29:21;;;;;;;4.32;3.58;;;;;;;;;;5085426;28;20115;-76
2022/04/24 01:31:50;;;;;;;0.00;0.00;;;;;;;;;;5108923;28;20035;-77
2022/04/24 01:34:17;;;;;;;0.20;0.20;;;;;;;;;;5108915;28;20020;-76
2022/04/24 01:36:47;;;;;;;2.63;1.80;;;;;;;;;;5132929;28;20030;-77
2022/04/24 01:39:15;;;;;;;1.17;1.08;;;;;;;;;;5109337;28;20024;-76
2022/04/24 01:41:42;;;;;;;0.00;0.00;;;;;;;;;;5092171;28;20008;-77
2022/04/24 01:44:08;;;;;;;0.65;0.45;;;;;;;;;;5104430;28;20030;-78
2022/04/24 01:46:36;;;;;;;0.00;0.00;;;;;;;;;;5103070;28;20037;-79
2022/04/24 01:49:03;;;;;;;0.10;0.10;;;;;;;;;;5087581;28;20051;-76
2022/04/24 01:51:31;;;;;;;0.43;0.40;;;;;;;;;;5103373;28;20100;-76
2022/04/24 01:53:58;;;;;;;0.00;0.00;;;;;;;;;;5109313;28;20103;-78
2022/04/24 01:56:24;;;;;;;0.00;0.00;;;;;;;;;;5105504;28;20051;-77
2022/04/24 01:58:51;;;;;;;0.20;0.20;;;;;;;;;;5105633;28;20635;-78
2022/04/24 02:01:17;;;;;;;0.10;0.10;;;;;;;;;;5111724;28;20027;-78
2022/04/24 02:03:43;;;;;;;13.45;1.25;;;;;;;;;;5083835;28;20479;-77
2022/04/24 02:06:10;;;;;;;1.08;0.08;;;;;;;;;;5086330;28;20030;-78
2022/04/24 02:08:39;;;;;;;3.38;1.60;;;;;;;;;;5110217;28;20498;-77
2022/04/24 02:11:08;;;;;;;8.30;7.47;;;;;;;;;;5111930;28;20080;-77
2022/04/24 02:13:35;;;;;;;0.63;0.55;;;;;;;;;;5115282;28;20045;-77
2022/04/24 02:16:01;;;;;;;0.00;0.00;;;;;;;;;;5092216;28;20027;-76
2022/04/24 02:18:28;;;;;;;0.08;0.08;;;;;;;;;;5097565;28;20027;-76
2022/04/24 02:20:54;;;;;;;5.00;4.57;;;;;;;;;;5106215;28;20038;-78
2022/04/24 02:23:30;;;;;;;0.00;0.00;;;;;;;;;;5081057;28;20036;-78
2022/04/24 02:25:56;;;;;;;0.00;0.00;;;;;;;;;;5107529;28;20116;-77
2022/04/24 02:28:23;;;;;;;0.10;0.10;;;;;;;;;;5101645;28;20062;-77
2022/04/24 02:30:50;;;;;;;0.25;0.25;;;;;;;;;;5095332;28;20030;-76
2022/04/24 02:33:16;;;;;;;0.00;0.00;;;;;;;;;;5095492;28;20032;-77
2022/04/24 02:35:42;;;;;;;0.30;0.30;;;;;;;;;;5099475;28;20706;-77
2022/04/24 02:38:09;;;;;;;0.93;0.93;;;;;;;;;;5089383;28;20459;-76
2022/04/24 02:40:35;;;;;;;0.00;0.00;;;;;;;;;;5100230;28;20031;-77
2022/04/24 02:43:02;;;;;;;0.00;0.00;;;;;;;;;;5100160;28;20016;-77
2022/04/24 02:45:31;;;;;;;0.00;0.00;;;;;;;;;;5106753;28;20024;-77
2022/04/24 02:47:57;;;;;;;1.20;1.13;;;;;;;;;;5077308;28;20387;-77
2022/04/24 02:50:23;;;;;;;0.03;0.03;;;;;;;;;;5104613;28;20108;-77
2022/04/24 02:52:54;;;;;;;3.20;3.00;;;;;;;;;;5103664;28;20038;-76
2022/04/24 02:55:21;;;;;;;0.00;0.00;;;;;;;;;;5103427;28;20479;-76
2022/04/24 02:57:47;;;;;;;0.00;0.00;;;;;;;;;;5102299;28;20023;-75
2022/04/24 03:00:25;;;;;;;1.85;1.75;;;;;;;;;;5082815;28;20028;-76
2022/04/24 03:02:52;;;;;;;0.20;0.20;;;;;;;;;;5097519;28;20073;-76
2022/04/24 03:05:20;;;;;;;0.00;0.00;;;;;;;;;;5102974;28;20103;-76
2022/04/24 03:07:46;;;;;;;0.00;0.00;;;;;;;;;;5083832;28;20210;-76
2022/04/24 03:10:13;;;;;;;1.00;1.00;;;;;;;;;;5098462;28;20024;-80
2022/04/24 03:12:40;;;;;;;2.47;2.33;;;;;;;;;;5100879;28;20024;-76
2022/04/24 03:15:07;;;;;;;1.65;0.85;;;;;;;;;;5103318;28;20102;-76
2022/04/24 03:17:33;;;;;;;0.00;0.00;;;;;;;;;;5100513;28;20040;-77
2022/04/24 03:20:00;;;;;;;0.00;0.00;;;;;;;;;;5099088;28;20019;-75
2022/04/24 03:22:36;;;;;;;0.43;0.43;;;;;;;;;;5103311;28;20032;-77
2022/04/24 03:25:06;;;;;;;0.15;0.13;;;;;;;;;;5100182;28;20025;-76
2022/04/24 03:27:43;;;;;;;0.28;0.28;;;;;;;;;;5083236;28;20047;-76
2022/04/24 03:30:12;;;;;;;0.00;0.00;;;;;;;;;;5080920;28;20047;-77
2022/04/24 03:32:39;;;;;;;0.10;0.10;;;;;;;;;;5091622;28;20111;-76
2022/04/24 03:35:09;;;;;;;1.10;1.00;;;;;;;;;;5081627;28;20177;-76
2022/04/24 03:37:48;;;;;;;0.00;0.00;;;;;;;;;;5110644;28;20028;-76
2022/04/24 03:41:11;;;;;;;0.30;0.30;;;;;;;;;;5085376;28;20037;-76
2022/04/24 03:43:46;;;;;;;0.00;0.00;;;;;;;;;;5007982;28;20026;-76
2022/04/24 03:46:12;;;;;;;0.00;0.00;;;;;;;;;;5005774;28;20030;-76
2022/04/24 03:48:39;;;;;;;0.57;0.52;;;;;;;;;;5060769;28;20034;-76
2022/04/24 03:51:07;;;;;;;0.00;0.00;;;;;;;;;;5102514;28;20043;-76
2022/04/24 03:53:36;;;;;;;0.00;0.00;;;;;;;;;;5086218;28;20418;-77
2022/04/24 03:56:03;;;;;;;0.00;0.00;;;;;;;;;;5087213;28;20027;-76
2022/04/24 03:58:29;;;;;;;0.00;0.00;;;;;;;;;;5110274;28;20390;-76
2022/04/24 04:00:55;;;;;;;0.10;0.10;;;;;;;;;;5083161;28;20461;-76
2022/04/24 04:03:22;;;;;;;0.00;0.00;;;;;;;;;;5086716;28;20035;-76
2022/04/24 04:05:48;;;;;;;0.00;0.00;;;;;;;;;;5089483;28;20024;-76
2022/04/24 04:08:14;;;;;;;0.00;0.00;;;;;;;;;;5116830;28;20024;-76
2022/04/24 04:10:41;;;;;;;1.08;0.32;;;;;;;;;;5107024;28;20036;-76
2022/04/24 04:13:08;;;;;;;0.05;0.05;;;;;;;;;;5111049;28;20020;-77
2022/04/24 04:15:35;;;;;;;2.50;1.70;;;;;;;;;;5097000;28;20034;-76
2022/04/24 04:18:01;;;;;;;1.95;1.20;;;;;;;;;;5114710;28;20047;-76
2022/04/24 04:20:27;;;;;;;0.00;0.00;;;;;;;;;;5108241;28;20026;-75
2022/04/24 04:22:55;;;;;;;4.03;3.92;;;;;;;;;;5127454;28;20024;-75
2022/04/24 04:25:25;;;;;;;0.00;0.00;;;;;;;;;;5092001;28;20024;-75
2022/04/24 04:27:55;;;;;;;0.00;0.00;;;;;;;;;;5089152;28;20024;-77
2022/04/24 04:30:27;;;;;;;2.30;2.20;;;;;;;;;;5100645;28;20048;-77
2022/04/24 04:33:00;;;;;;;1.95;0.40;;;;;;;;;;5107303;28;20035;-77
2022/04/24 04:35:29;;;;;;;4.28;3.83;;;;;;;;;;5100919;28;20076;-77
2022/04/24 04:37:55;;;;;;;0.00;0.00;;;;;;;;;;5107566;28;20024;-79
2022/04/24 04:40:22;;;;;;;0.00;0.00;;;;;;;;;;5107223;28;20251;-76
2022/04/24 04:42:49;;;;;;;0.00;0.00;;;;;;;;;;5113405;28;20059;-75
2022/04/24 04:45:16;;;;;;;0.65;0.65;;;;;;;;;;5107778;28;20016;-76
2022/04/24 04:47:43;;;;;;;0.00;0.00;;;;;;;;;;5093426;28;20031;-77
2022/04/24 04:50:09;;;;;;;0.00;0.00;;;;;;;;;;5092698;28;20205;-76
2022/04/24 04:52:36;;;;;;;0.10;0.10;;;;;;;;;;5094461;28;20068;-77
2022/04/24 04:55:04;;;;;;;2.65;1.98;;;;;;;;;;5108085;28;20688;-75
2022/04/24 04:57:30;;;;;;;0.00;0.00;;;;;;;;;;5095088;28;20088;-76
2022/04/24 04:59:57;;;;;;;0.00;0.00;;;;;;;;;;5113765;28;20023;-77
2022/04/24 05:02:23;;;;;;;3.03;2.92;;;;;;;;;;5109652;28;20501;-75
2022/04/24 05:04:49;;;;;;;0.13;0.10;;;;;;;;;;5093792;28;20035;-75
2022/04/24 05:07:16;;;;;;;1.30;0.80;;;;;;;;;;5103985;28;20108;-77
2022/04/24 05:09:42;;;;;;;11.30;3.00;;;;;;;;;;5089061;28;20497;-78
2022/04/24 05:12:09;;;;;;;2.75;1.95;;;;;;;;;;5100540;28;20032;-74
2022/04/24 05:14:35;;;;;;;3.92;2.17;;;;;;;;;;5092827;28;20016;-76
2022/04/24 05:17:02;;;;;;;2.28;2.08;;;;;;;;;;5074194;28;20609;-77
2022/04/24 05:19:29;;;;;;;3.45;3.13;;;;;;;;;;5092703;28;20028;-75
2022/04/24 05:21:56;;;;;;;1.95;1.67;;;;;;;;;;5092778;28;20107;-78
2022/04/24 05:24:22;;;;;;;2.42;2.05;;;;;;;;;;5074580;28;20020;-75
2022/04/24 05:26:48;;;;;;;13.65;7.45;;;;;;;;;;5092589;28;20107;-75
2022/04/24 05:29:15;;;;;;;5.25;4.18;;;;;;;;;;5098535;28;20113;-76
2022/04/24 05:31:41;;;;;;;8.68;4.82;;;;;;;;;;5110945;28;20051;-75
2022/04/24 05:34:08;;;;;;;5.75;3.70;;;;;;;;;;5101379;28;20129;-76
2022/04/24 05:36:34;;;;;;;5.97;3.50;;;;;;;;;;5083715;28;20024;-74
2022/04/24 05:39:00;;;;;;;2.95;1.92;;;;;;;;;;5080008;28;20019;-76
2022/04/24 05:41:27;;;;;;;3.72;2.65;;;;;;;;;;5099865;28;20036;-76
2022/04/24 05:43:53;;;;;;;6.63;3.70;;;;;;;;;;5096023;28;20478;-76
2022/04/24 05:46:19;;;;;;;7.15;5.40;;;;;;;;;;5097783;28;20459;-77
2022/04/24 05:48:46;;;;;;;4.72;3.25;;;;;;;;;;5097436;28;20100;-76
2022/04/24 05:51:12;;;;;;;8.05;5.95;;;;;;;;;;5094184;28;20069;-76
2022/04/24 05:53:42;;;;;;;4.45;2.10;;;;;;;;;;5093436;28;20047;-76
2022/04/24 05:56:08;;;;;;;1.80;1.30;;;;;;;;;;5101808;28;20098;-76
2022/04/24 05:58:34;;;;;;;0.60;0.60;;;;;;;;;;5100385;28;20506;-77
2022/04/24 06:01:01;;;;;;;6.07;4.13;;;;;;;;;;5100093;28;20028;-78
2022/04/24 06:03:27;;;;;;;4.43;1.67;;;;;;;;;;5102279;28;20024;-78
2022/04/24 06:05:53;;;;;;;6.57;3.97;;;;;;;;;;5102117;28;20103;-76
2022/04/24 06:08:21;;;;;;;2.28;1.73;;;;;;;;;;5102461;28;20036;-76
2022/04/24 06:10:47;;;;;;;2.40;2.20;;;;;;;;;;5086263;28;20173;-75
2022/04/24 06:13:14;;;;;;;5.03;3.50;;;;;;;;;;5084718;28;20023;-75
2022/04/24 06:15:40;;;;;;;2.58;2.38;;;;;;;;;;5099156;28;20028;-77
2022/04/24 06:18:07;;;;;;;5.72;3.25;;;;;;;;;;5112515;28;20039;-77
2022/04/24 06:20:36;;;;;;;5.28;3.17;;;;;;;;;;5083803;28;20420;-76
2022/04/24 06:23:02;;;;;;;2.75;1.48;;;;;;;;;;5105260;28;20470;-76
2022/04/24 06:25:30;;;;;;;2.15;1.75;;;;;;;;;;5102174;28;20038;-76
2022/04/24 06:27:56;;;;;;;0.63;0.63;;;;;;;;;;5102397;28;20085;-75
2022/04/24 06:30:23;;;;;;;1.92;1.63;;;;;;;;;;5099103;28;20100;-75
2022/04/24 06:32:50;;;;;;;0.82;0.82;;;;;;;;;;5100909;28;20024;-76
2022/04/24 06:35:17;;;;;;;1.30;0.60;;;;;;;;;;5104539;28;20024;-76
2022/04/24 06:37:45;;;;;;;5.70;3.33;;;;;;;;;;5103290;28;20149;-75
2022/04/24 06:40:12;;;;;;;10.07;7.50;;;;;;;;;;5101892;28;20051;-77
2022/04/24 06:42:49;;;;;;;15.70;10.02;;;;;;;;;;5104367;28;20016;-74
2022/04/24 06:45:16;;;;;;;3.35;3.05;;;;;;;;;;5102751;28;20102;-75
2022/04/24 06:47:45;;;;;;;0.73;0.40;;;;;;;;;;5103261;28;20031;-76
2022/04/24 06:50:12;;;;;;;1.98;1.75;;;;;;;;;;5104710;28;20015;-75
2022/04/24 06:52:38;;;;;;;0.47;0.47;;;;;;;;;;5104458;28;20031;-76
2022/04/24 06:55:07;;;;;;;0.25;0.25;;;;;;;;;;5086787;28;20024;-77
2022/04/24 06:57:34;;;;;;;6.88;6.55;;;;;;;;;;5102961;28;20024;-76
2022/04/24 07:00:01;;;;;;;0.55;0.55;;;;;;;;;;5098202;28;20023;-76
2022/04/24 07:02:27;;;;;;;1.23;0.73;;;;;;;;;;5117933;28;20035;-76
2022/04/24 07:04:54;;;;;;;0.88;0.85;;;;;;;;;;5115020;28;20038;-76
2022/04/24 07:07:20;;;;;;;0.43;0.43;;;;;;;;;;5120200;28;20051;-76
2022/04/24 07:09:46;;;;;;;0.82;0.82;;;;;;;;;;5119163;28;20031;-76
2022/04/24 07:12:15;;;;;;;7.00;6.38;;;;;;;;;;5083775;28;20028;-75
2022/04/24 07:14:42;;;;;;;0.00;0.00;;;;;;;;;;5086317;28;20092;-76
2022/04/24 07:17:08;;;;;;;0.00;0.00;;;;;;;;;;5100488;28;20032;-76
2022/04/24 07:19:34;;;;;;;1.35;1.35;;;;;;;;;;5103878;28;20076;-76
2022/04/24 07:22:01;;;;;;;0.00;0.00;;;;;;;;;;5107439;28;20035;-75
2022/04/24 07:24:27;;;;;;;0.15;0.15;;;;;;;;;;5105671;28;20377;-75
2022/04/24 07:26:54;;;;;;;1.42;0.60;;;;;;;;;;5104652;28;20064;-76
2022/04/24 07:29:20;;;;;;;0.85;0.85;;;;;;;;;;5101253;28;20085;-76
2022/04/24 07:31:46;;;;;;;1.50;1.45;;;;;;;;;;5099204;28;20028;-75
2022/04/24 07:34:13;;;;;;;0.00;0.00;;;;;;;;;;5097237;28;20103;-77
2022/04/24 07:36:39;;;;;;;0.08;0.08;;;;;;;;;;5084716;28;20020;-75
2022/04/24 07:39:05;;;;;;;0.00;0.00;;;;;;;;;;5104410;28;20023;-75
2022/04/24 07:41:32;;;;;;;0.10;0.10;;;;;;;;;;5105178;28;20028;-74
2022/04/24 07:43:58;;;;;;;0.00;0.00;;;;;;;;;;5099974;28;20023;-76
2022/04/24 07:46:24;;;;;;;1.65;1.55;;;;;;;;;;5078474;28;20070;-76
2022/04/24 07:48:51;;;;;;;0.47;0.47;;;;;;;;;;5080812;28;20405;-78
2022/04/24 07:51:17;;;;;;;0.82;0.73;;;;;;;;;;5084084;28;20027;-75
2022/04/24 07:53:44;;;;;;;1.98;1.60;;;;;;;;;;5101266;28;20106;-75
2022/04/24 07:56:11;;;;;;;0.17;0.10;;;;;;;;;;5088823;28;20028;-75
2022/04/24 07:58:37;;;;;;;0.47;0.43;;;;;;;;;;5097349;28;20441;-75
2022/04/24 08:01:04;;;;;;;0.00;0.00;;;;;;;;;;5100931;28;20032;-75
2022/04/24 08:03:30;;;;;;;0.65;0.57;;;;;;;;;;5100576;28;20106;-77
2022/04/24 08:05:58;;;;;;;0.00;0.00;;;;;;;;;;5098165;28;20044;-77
2022/04/24 08:08:26;;;;;;;0.00;0.00;;;;;;;;;;5097432;28;20078;-76
2022/04/24 08:11:00;;;;;;;1.75;1.65;;;;;;;;;;5100984;28;20026;-76
2022/04/24 08:13:26;;;;;;;0.00;0.00;;;;;;;;;;5100211;28;20363;-75
2022/04/24 08:15:53;;;;;;;0.35;0.35;;;;;;;;;;5099363;28;20035;-76
2022/04/24 08:18:20;;;;;;;0.00;0.00;;;;;;;;;;5103042;28;20035;-76
2022/04/24 08:20:47;;;;;;;0.15;0.15;;;;;;;;;;5099071;28;20034;-75
2022/04/24 08:23:17;;;;;;;5.25;0.75;;;;;;;;;;5084808;28;20099;-75
2022/04/24 08:25:43;;;;;;;0.00;0.00;;;;;;;;;;5100156;28;20430;-76
2022/04/24 08:28:10;;;;;;;0.00;0.00;;;;;;;;;;5080104;28;20045;-76
2022/04/24 08:30:41;;;;;;;0.00;0.00;;;;;;;;;;5101084;28;20027;-75
2022/04/24 08:33:07;;;;;;;0.28;0.28;;;;;;;;;;5103088;28;20133;-76
2022/04/24 08:35:37;;;;;;;0.82;0.82;;;;;;;;;;5100670;28;20024;-77
2022/04/24 08:38:04;;;;;;;0.10;0.10;;;;;;;;;;5100963;28;20024;-76
2022/04/24 08:40:30;;;;;;;0.00;0.00;;;;;;;;;;5084291;28;20034;-75
2022/04/24 08:42:57;;;;;;;0.00;0.00;;;;;;;;;;5096936;28;20016;-76
2022/04/24 08:45:29;;;;;;;0.00;0.00;;;;;;;;;;5096975;28;20042;-76
2022/04/24 08:47:56;;;;;;;0.00;0.00;;;;;;;;;;5100088;28;20543;-75
2022/04/24 08:50:23;;;;;;;0.68;0.68;;;;;;;;;;5106341;28;20096;-76
2022/04/24 08:52:50;;;;;;;0.00;0.00;;;;;;;;;;5082585;28;20153;-75
2022/04/24 08:55:16;;;;;;;0.28;0.28;;;;;;;;;;5107393;28;20043;-76
2022/04/24 08:57:43;;;;;;;0.00;0.00;;;;;;;;;;5089338;28;20016;-76
2022/04/24 09:00:10;;;;;;;0.10;0.10;;;;;;;;;;5098383;28;20021;-76
2022/04/24 09:02:36;;;;;;;1.55;1.45;;;;;;;;;;5099751;28;20478;-76
2022/04/24 09:05:06;;;;;;;0.10;0.10;;;;;;;;;;5096364;28;20110;-76
2022/04/24 09:07:33;;;;;;;10.23;9.43;;;;;;;;;;5099560;28;20070;-75
2022/04/24 09:10:03;;;;;;;0.88;0.80;;;;;;;;;;5103166;28;20020;-77
2022/04/24 09:12:29;;;;;;;0.00;0.00;;;;;;;;;;5098469;28;20526;-76
2022/04/24 09:14:57;;;;;;;26.65;23.75;;;;;;;;;;5104390;28;20019;-76
2022/04/24 09:17:25;;;;;;;0.00;0.00;;;;;;;;;;5097816;28;20040;-76
2022/04/24 09:19:52;;;;;;;0.00;0.00;;;;;;;;;;5079391;28;20040;-76
2022/04/24 09:22:19;;;;;;;0.00;0.00;;;;;;;;;;5098730;28;20024;-76
2022/04/24 09:24:49;;;;;;;0.00;0.00;;;;;;;;;;5103298;28;20032;-75
2022/04/24 09:27:27;;;;;;;0.00;0.00;;;;;;;;;;5102352;28;20478;-76
2022/04/24 09:29:58;;;;;;;0.20;0.20;;;;;;;;;;5099530;28;20032;-77
2022/04/24 09:32:25;;;;;;;0.00;0.00;;;;;;;;;;5101157;28;20032;-76
2022/04/24 09:34:52;;;;;;;0.00;0.00;;;;;;;;;;5080150;28;20051;-77
2022/04/24 09:37:18;;;;;;;0.00;0.00;;;;;;;;;;5102904;28;20020;-76
2022/04/24 09:39:45;;;;;;;0.00;0.00;;;;;;;;;;5107459;28;20041;-76
2022/04/24 09:42:13;;;;;;;0.00;0.00;;;;;;;;;;5097028;28;20020;-80
2022/04/24 09:44:45;;;;;;;1.25;1.15;;;;;;;;;;5086571;28;20036;-78
2022/04/24 09:47:12;;;;;;;0.00;0.00;;;;;;;;;;5102491;28;20023;-78
2022/04/24 09:49:40;;;;;;;3.10;1.85;;;;;;;;;;5084628;28;20035;-79
2022/04/24 09:52:11;;;;;;;0.08;0.08;;;;;;;;;;5089972;28;20408;-78
2022/04/24 09:54:45;;;;;;;0.20;0.20;;;;;;;;;;5108284;28;20088;-81
2022/04/24 09:57:12;;;;;;;0.00;0.00;;;;;;;;;;5119297;28;20026;-79
2022/04/24 09:59:39;;;;;;;0.00;0.00;;;;;;;;;;5109238;28;20060;-80
2022/04/24 10:02:07;;;;;;;5.60;1.38;;;;;;;;;;5097651;28;20032;-79
2022/04/24 10:04:38;;;;;;;0.28;0.00;;;;;;;;;;5092418;28;20028;-80
2022/04/24 10:07:07;;;;;;;0.08;0.00;;;;;;;;;;5080771;28;20024;-81
2022/04/24 10:09:35;;;;;;;0.52;0.28;;;;;;;;;;5104352;28;20023;-80
2022/04/24 10:12:09;;;;;;;4.50;1.65;;;;;;;;;;5101437;28;20024;-80
2022/04/24 10:14:39;;;;;;;0.10;0.10;;;;;;;;;;5099904;28;20387;-80
2022/04/24 10:17:13;;;;;;;1.42;0.77;;;;;;;;;;5099376;28;20028;-81
2022/04/24 10:19:58;;;;;;;0.00;0.00;;;;;;;;;;5083824;28;20553;-81
2022/04/24 10:22:33;;;;;;;0.90;0.80;;;;;;;;;;5103854;28;20063;-81
2022/04/24 10:25:01;;;;;;;2.70;2.38;;;;;;;;;;5081045;28;20471;-82
2022/04/24 10:27:41;;;;;;;0.00;0.00;;;;;;;;;;5099286;28;20446;-80
2022/04/24 10:30:11;;;;;;;1.55;0.93;;;;;;;;;;5092760;28;20487;-79
2022/04/24 10:32:38;;;;;;;1.48;1.38;;;;;;;;;;5102778;28;20028;-78
2022/04/24 10:35:15;;;;;;;1.05;0.95;;;;;;;;;;5106245;28;20095;-79
2022/04/24 10:37:44;;;;;;;0.00;0.00;;;;;;;;;;5103503;28;20024;-79
2022/04/24 10:40:28;;;;;;;1.40;0.85;;;;;;;;;;5082280;28;20386;-79
2022/04/24 10:43:05;;;;;;;1.33;1.17;;;;;;;;;;5112554;28;20119;-79
2022/04/24 10:45:35;;;;;;;1.30;1.20;;;;;;;;;;5085398;28;20024;-79
2022/04/24 10:48:05;;;;;;;0.55;0.55;;;;;;;;;;5100027;28;20031;-79
2022/04/24 10:50:35;;;;;;;0.32;0.25;;;;;;;;;;5099049;28;20043;-79
2022/04/24 10:53:10;;;;;;;1.63;1.48;;;;;;;;;;5097206;28;20433;-79
2022/04/24 10:55:37;;;;;;;2.38;1.63;;;;;;;;;;5102601;28;20020;-81
2022/04/24 10:58:06;;;;;;;2.17;1.17;;;;;;;;;;5088377;28;20110;-80
2022/04/24 11:00:38;;;;;;;1.40;0.75;;;;;;;;;;5085281;28;20072;-79
2022/04/24 11:03:15;;;;;;;0.32;0.32;;;;;;;;;;5103445;28;20032;-78
2022/04/24 11:05:46;;;;;;;1.00;0.98;;;;;;;;;;5101749;28;20524;-79
2022/04/24 11:08:20;;;;;;;0.22;0.22;;;;;;;;;;5102101;28;20051;-79
2022/04/24 11:10:48;;;;;;;3.33;3.08;;;;;;;;;;5106851;28;20020;-78
2022/04/24 11:13:21;;;;;;;0.63;0.63;;;;;;;;;;5085382;28;20428;-78
2022/04/24 11:15:48;;;;;;;0.90;0.85;;;;;;;;;;5107483;28;20463;-78
2022/04/24 11:18:22;;;;;;;4.57;1.38;;;;;;;;;;5103358;28;20394;-78
2022/04/24 11:20:54;;;;;;;0.00;0.00;;;;;;;;;;5102777;28;20055;-79
2022/04/24 11:23:23;;;;;;;0.73;0.43;;;;;;;;;;5102517;28;20118;-80
2022/04/24 11:25:53;;;;;;;0.15;0.15;;;;;;;;;;5087382;28;20074;-79
2022/04/24 11:28:19;;;;;;;0.32;0.10;;;;;;;;;;5085987;28;20399;-81
2022/04/24 11:30:45;;;;;;;1.60;0.75;;;;;;;;;;5103600;28;20499;-80
2022/04/24 11:33:12;;;;;;;0.80;0.80;;;;;;;;;;5101478;28;20023;-79
2022/04/24 11:35:40;;;;;;;0.50;0.40;;;;;;;;;;5100557;28;20022;-79
2022/04/24 11:38:07;;;;;;;2.47;1.35;;;;;;;;;;5099042;28;20031;-80
2022/04/24 11:40:38;;;;;;;0.00;0.00;;;;;;;;;;5102526;28;20509;-79
2022/04/24 11:43:05;;;;;;;1.17;0.55;;;;;;;;;;5086768;28;20106;-79
2022/04/24 11:51:15;;;;;;;0.95;0.75;;;;;;;;;;5094463;28;20059;-80
2022/04/24 11:53:42;;;;;;;0.00;0.00;;;;;;;;;;5095976;28;20024;-79
2022/04/24 11:56:09;;;;;;;0.38;0.38;;;;;;;;;;5107100;28;20158;-80
2022/04/24 11:58:39;;;;;;;3.05;2.33;;;;;;;;;;5079422;28;20374;-80
2022/04/24 12:01:08;;;;;;;0.03;0.03;;;;;;;;;;5089622;28;20028;-78
2022/04/24 12:03:35;;;;;;;0.00;0.00;;;;;;;;;;5078098;28;20024;-80
2022/04/24 12:06:02;;;;;;;0.00;0.00;;;;;;;;;;5090594;28;20056;-80
2022/04/24 12:08:42;;;;;;;0.00;0.00;;;;;;;;;;5108830;28;20348;-79
2022/04/24 12:11:08;;;;;;;0.35;0.35;;;;;;;;;;5092991;28;20062;-81
2022/04/24 12:13:35;;;;;;;0.00;0.00;;;;;;;;;;5108868;28;20020;-79
2022/04/24 12:16:01;;;;;;;2.97;2.88;;;;;;;;;;5092614;28;20359;-80
2022/04/24 12:18:28;;;;;;;0.00;0.00;;;;;;;;;;5089016;28;20027;-80
2022/04/24 12:20:58;;;;;;;0.00;0.00;;;;;;;;;;5104637;28;20475;-80
2022/04/24 12:23:26;;;;;;;0.20;0.20;;;;;;;;;;5102425;28;20383;-80
2022/04/24 12:25:56;;;;;;;2.83;2.60;;;;;;;;;;5104710;28;20035;-79
2022/04/24 12:28:29;;;;;;;0.05;0.05;;;;;;;;;;5111969;28;20116;-81
2022/04/24 12:30:58;;;;;;;0.00;0.00;;;;;;;;;;5087162;28;20369;-80
2022/04/24 12:33:25;;;;;;;0.00;0.00;;;;;;;;;;5099650;28;20159;-80
2022/04/24 12:35:51;;;;;;;0.00;0.00;;;;;;;;;;5099351;28;20016;-80
2022/04/24 12:38:19;;;;;;;7.32;2.83;;;;;;;;;;5098822;28;20023;-80
2022/04/24 12:40:59;;;;;;;0.08;0.08;;;;;;;;;;5123599;28;20019;-79
2022/04/24 12:43:32;;;;;;;2.00;1.90;;;;;;;;;;5101134;28;20050;-79
2022/04/24 12:45:58;;;;;;;0.20;0.20;;;;;;;;;;5103424;28;20024;-80
2022/04/24 12:48:25;;;;;;;0.00;0.00;;;;;;;;;;5099096;28;20122;-79
2022/04/24 12:50:52;;;;;;;0.00;0.00;;;;;;;;;;5099259;28;20026;-79
2022/04/24 12:53:24;;;;;;;0.00;0.00;;;;;;;;;;5099204;28;20073;-79
2022/04/24 12:55:55;;;;;;;0.00;0.00;;;;;;;;;;5098878;28;20039;-79
2022/04/24 12:58:22;;;;;;;1.73;1.63;;;;;;;;;;5080279;28;20115;-79
2022/04/24 13:00:48;;;;;;;0.75;0.75;;;;;;;;;;5082580;28;20148;-79
2022/04/24 13:03:15;;;;;;;0.93;0.70;;;;;;;;;;5108667;28;20030;-79
2022/04/24 13:05:42;;;;;;;1.17;0.95;;;;;;;;;;5124818;28;20028;-79
2022/04/24 13:08:09;;;;;;;1.67;0.73;;;;;;;;;;5112400;28;20417;-79
2022/04/24 13:10:35;;;;;;;1.58;1.48;;;;;;;;;;5100182;28;20552;-79
2022/04/24 13:13:02;;;;;;;5.65;3.20;;;;;;;;;;5085653;28;20027;-79
2022/04/24 13:15:31;;;;;;;5.68;0.60;;;;;;;;;;5104791;28;20024;-79
2022/04/24 13:18:07;;;;;;;1.95;1.85;;;;;;;;;;5104106;28;20080;-79
2022/04/24 13:20:36;;;;;;;3.65;2.58;;;;;;;;;;5100069;28;20023;-80
2022/04/24 13:23:07;;;;;;;2.72;2.47;;;;;;;;;;5102646;28;20058;-79
2022/04/24 13:25:44;;;;;;;0.28;0.28;;;;;;;;;;5081749;28;20028;-79
2022/04/24 13:28:11;;;;;;;2.85;2.08;;;;;;;;;;5082029;28;20020;-79
2022/04/24 13:30:37;;;;;;;5.97;2.55;;;;;;;;;;5094442;28;20099;-79
2022/04/24 13:33:03;;;;;;;5.55;3.67;;;;;;;;;;5102891;28;20027;-80
2022/04/24 13:35:30;;;;;;;6.25;1.27;;;;;;;;;;5113054;28;20023;-80
2022/04/24 13:40:41;;;;;;;6.25;3.60;;;;;;;;;;5109232;28;20114;-80
2022/04/24 13:43:08;;;;;;;0.28;0.28;;;;;;;;;;5079050;28;20024;-81
2022/04/24 13:45:35;;;;;;;3.28;3.08;;;;;;;;;;5099626;28;20032;-80
2022/04/24 13:48:02;;;;;;;8.20;2.03;;;;;;;;;;5098182;28;20110;-80
2022/04/24 13:50:30;;;;;;;3.25;2.38;;;;;;;;;;5077774;28;20110;-80
2022/04/24 13:52:57;;;;;;;2.63;1.13;;;;;;;;;;5099445;28;20091;-80
2022/04/24 13:55:23;;;;;;;0.45;0.45;;;;;;;;;;5099118;28;20495;-80
2022/04/24 13:57:49;;;;;;;0.20;0.20;;;;;;;;;;5096244;28;20019;-81
2022/04/24 14:00:16;;;;;;;0.47;0.43;;;;;;;;;;5080566;28;20441;-80
2022/04/24 14:02:42;;;;;;;1.38;1.08;;;;;;;;;;5102824;28;20032;-80
2022/04/24 14:05:11;;;;;;;2.92;2.13;;;;;;;;;;5080073;28;20378;-80
2022/04/24 14:07:37;;;;;;;6.70;1.45;;;;;;;;;;5084109;28;20073;-79
2022/04/24 14:10:05;;;;;;;1.75;1.65;;;;;;;;;;5096995;28;20099;-78
2022/04/24 14:12:31;;;;;;;1.98;1.13;;;;;;;;;;5103055;28;20024;-80
2022/04/24 14:14:57;;;;;;;3.83;2.15;;;;;;;;;;5085295;28;20443;-78
2022/04/24 14:17:24;;;;;;;4.47;2.75;;;;;;;;;;5105090;28;20050;-78
2022/04/24 14:19:50;;;;;;;4.85;3.60;;;;;;;;;;5108643;28;20027;-79
2022/04/24 14:22:16;;;;;;;1.60;1.08;;;;;;;;;;5100436;28;20049;-79
2022/04/24 14:24:43;;;;;;;2.47;1.65;;;;;;;;;;5084008;28;20024;-79
2022/04/24 14:27:10;;;;;;;6.65;1.63;;;;;;;;;;5085004;28;20116;-79
2022/04/24 14:29:37;;;;;;;2.53;2.30;;;;;;;;;;5103218;28;20019;-78
2022/04/24 14:32:05;;;;;;;1.75;0.57;;;;;;;;;;5094489;28;20044;-79
2022/04/24 14:34:31;;;;;;;4.47;2.28;;;;;;;;;;5089687;28;20066;-79
2022/04/24 14:36:57;;;;;;;3.90;1.40;;;;;;;;;;5102049;28;20019;-79
2022/04/24 14:39:24;;;;;;;2.55;2.05;;;;;;;;;;5101951;28;20561;-79
2022/04/24 14:41:52;;;;;;;1.15;0.90;;;;;;;;;;5095358;28;20112;-80
2022/04/24 14:44:19;;;;;;;2.78;2.33;;;;;;;;;;5109830;28;20016;-81
2022/04/24 14:57:56;;;;;;;2.40;1.88;;;;;;;;;;5108653;28;20080;-78
2022/04/24 15:00:26;;;;;;;2.13;0.98;;;;;;;;;;5082229;28;20051;-79
2022/04/24 15:02:53;;;;;;;1.17;0.90;;;;;;;;;;5084847;28;20539;-78
2022/04/24 15:05:20;;;;;;;3.83;2.92;;;;;;;;;;5106910;28;20134;-78
2022/04/24 15:07:46;;;;;;;2.50;1.77;;;;;;;;;;5112414;28;20031;-79